createdAt,value
2023-03-22T00:02:05.744Z,9.60
2023-03-22T00:04:32.805Z,9.70
2023-03-22T00:07:00.015Z,9.70
2023-03-22T00:09:26.872Z,9.70
2023-03-22T00:11:55.236Z,9.70
2023-03-22T00:14:22.084Z,9.70
2023-03-22T00:16:49.366Z,9.70
2023-03-22T00:19:17.452Z,9.60
2023-03-22T00:21:45.292Z,9.70
2023-03-22T00:24:12.151Z,9.70
2023-03-22T00:26:39.321Z,9.60
2023-03-22T00:29:07.509Z,9.60
2023-03-22T00:31:34.677Z,9.70
2023-03-22T00:34:01.456Z,9.60
2023-03-22T00:36:28.872Z,9.60
2023-03-22T00:38:55.925Z,9.60
2023-03-22T00:41:24.378Z,9.60
2023-03-22T00:43:51.704Z,9.60
2023-03-22T00:46:21.574Z,9.60
2023-03-22T00:48:48.935Z,9.70
2023-03-22T00:51:16.416Z,9.70
2023-03-22T00:53:43.880Z,9.70
2023-03-22T00:56:13.843Z,9.80
2023-03-22T00:58:42.456Z,9.70
2023-03-22T01:01:09.495Z,9.80
2023-03-22T01:03:39.334Z,9.80
2023-03-22T01:06:07.175Z,9.80
2023-03-22T01:08:34.559Z,9.80
2023-03-22T01:11:01.454Z,9.80
2023-03-22T01:13:29.085Z,9.80
2023-03-22T01:15:56.180Z,9.70
2023-03-22T01:18:23.733Z,9.70
2023-03-22T01:20:52.686Z,9.80
2023-03-22T01:23:19.846Z,9.80
2023-03-22T01:25:47.512Z,9.80
2023-03-22T01:28:14.738Z,9.80
2023-03-22T01:30:42.258Z,9.80
2023-03-22T01:33:09.856Z,9.80
2023-03-22T01:35:37.361Z,9.80
2023-03-22T01:38:05.792Z,9.80
2023-03-22T01:40:33.710Z,9.80
2023-03-22T01:43:01.090Z,9.80
2023-03-22T01:45:35.776Z,9.80
2023-03-22T01:48:09.015Z,9.80
2023-03-22T01:50:38.899Z,9.80
2023-03-22T01:53:09.273Z,9.90
2023-03-22T01:55:37.261Z,9.90
2023-03-22T01:58:04.564Z,9.90
2023-03-22T02:00:33.171Z,9.90
2023-03-22T02:03:00.301Z,10.00
2023-03-22T02:05:27.928Z,10.00
2023-03-22T02:07:54.940Z,9.90
2023-03-22T02:10:26.566Z,9.90
2023-03-22T02:13:05.587Z,10.00
2023-03-22T02:15:38.467Z,10.00
2023-03-22T02:18:20.853Z,10.00
2023-03-22T02:21:06.211Z,10.00
2023-03-22T02:24:15.866Z,10.00
2023-03-22T02:27:03.176Z,9.90
2023-03-22T02:29:41.483Z,9.90
2023-03-22T02:32:42.982Z,9.90
2023-03-22T02:35:42.793Z,9.90
2023-03-22T02:38:45.809Z,9.90
2023-03-22T02:41:18.170Z,9.90
2023-03-22T02:43:54.584Z,9.90
2023-03-22T02:46:26.280Z,10.00
2023-03-22T02:49:01.593Z,10.00
2023-03-22T02:51:34.558Z,10.00
2023-03-22T02:54:06.565Z,10.00
2023-03-22T02:56:39.649Z,10.00
2023-03-22T02:59:11.426Z,10.00
2023-03-22T03:01:41.662Z,10.10
2023-03-22T03:04:12.645Z,10.00
2023-03-22T03:06:46.261Z,10.00
2023-03-22T03:09:17.973Z,10.10
2023-03-22T03:11:47.812Z,10.10
2023-03-22T03:14:23.263Z,10.10
2023-03-22T03:17:01.721Z,10.10
2023-03-22T03:19:33.053Z,10.20
2023-03-22T03:22:06.954Z,10.20
2023-03-22T03:24:39.212Z,10.20
2023-03-22T03:27:11.786Z,10.20
2023-03-22T03:29:41.577Z,10.20
2023-03-22T03:32:16.253Z,10.20
2023-03-22T03:34:49.643Z,10.20
2023-03-22T03:37:20.159Z,10.20
2023-03-22T03:39:51.761Z,10.20
2023-03-22T03:42:22.990Z,10.30
2023-03-22T03:44:49.961Z,10.30
2023-03-22T03:47:18.434Z,10.20
2023-03-22T03:49:46.331Z,10.20
2023-03-22T03:52:14.003Z,10.20
2023-03-22T03:54:41.121Z,10.20
2023-03-22T03:57:08.431Z,10.30
2023-03-22T03:59:36.813Z,10.20
2023-03-22T04:02:04.052Z,10.20
2023-03-22T04:04:30.912Z,10.20
2023-03-22T04:06:59.558Z,10.20
2023-03-22T04:09:27.931Z,10.10
2023-03-22T04:11:55.666Z,10.20
2023-03-22T04:14:23.783Z,10.30
2023-03-22T04:16:53.068Z,10.20
2023-03-22T04:19:20.127Z,10.30
2023-03-22T04:21:47.656Z,10.20
2023-03-22T04:24:15.353Z,10.20
2023-03-22T04:26:42.831Z,10.20
2023-03-22T04:29:09.926Z,10.20
2023-03-22T04:31:37.915Z,10.30
2023-03-22T04:34:06.549Z,10.10
2023-03-22T04:36:36.545Z,10.10
2023-03-22T04:39:05.999Z,10.10
2023-03-22T04:41:33.344Z,10.10
2023-03-22T04:44:03.508Z,10.10
2023-03-22T04:46:31.503Z,10.20
2023-03-22T04:48:58.885Z,10.10
2023-03-22T04:51:28.293Z,10.10
2023-03-22T04:53:55.140Z,10.20
2023-03-22T04:56:22.816Z,10.10
2023-03-22T04:58:49.682Z,10.10
2023-03-22T05:01:18.571Z,10.00
2023-03-22T05:03:47.266Z,10.00
2023-03-22T05:06:14.945Z,10.00
2023-03-22T05:08:43.385Z,9.90
2023-03-22T05:11:13.661Z,10.00
2023-03-22T05:13:41.264Z,10.00
2023-03-22T05:16:10.024Z,10.00
2023-03-22T05:18:42.580Z,10.00
2023-03-22T05:21:13.734Z,10.00
2023-03-22T05:23:40.878Z,10.00
2023-03-22T05:26:10.769Z,10.00
2023-03-22T05:28:38.593Z,10.00
2023-03-22T05:31:06.160Z,10.00
2023-03-22T05:33:34.795Z,10.10
2023-03-22T05:36:02.177Z,10.10
2023-03-22T05:38:29.119Z,10.10
2023-03-22T05:40:56.100Z,10.10
2023-03-22T05:43:24.467Z,10.10
2023-03-22T05:45:51.700Z,10.10
2023-03-22T05:48:18.676Z,10.20
2023-03-22T05:50:46.202Z,10.10
2023-03-22T05:53:13.076Z,10.10
2023-03-22T05:55:40.570Z,10.20
2023-03-22T05:58:08.375Z,10.20
2023-03-22T06:00:36.857Z,10.30
2023-03-22T06:03:05.330Z,10.30
2023-03-22T06:05:33.184Z,10.30
2023-03-22T06:08:00.858Z,10.30
2023-03-22T06:10:29.150Z,10.30
2023-03-22T06:12:56.151Z,10.30
2023-03-22T06:15:22.949Z,10.40
2023-03-22T06:17:51.617Z,10.50
2023-03-22T06:20:19.675Z,10.60
2023-03-22T06:22:46.933Z,10.70
2023-03-22T06:25:14.736Z,10.80
2023-03-22T06:27:41.915Z,10.90
2023-03-22T06:30:09.507Z,10.90
2023-03-22T06:32:36.653Z,10.90
2023-03-22T06:35:05.689Z,10.90
2023-03-22T06:37:32.955Z,10.90
2023-03-22T06:39:59.786Z,10.90
2023-03-22T06:42:27.154Z,10.90
2023-03-22T06:44:54.004Z,10.80
2023-03-22T06:47:21.850Z,10.80
2023-03-22T06:49:48.692Z,10.80
2023-03-22T06:52:17.174Z,10.80
2023-03-22T06:54:44.145Z,10.80
2023-03-22T06:57:12.006Z,10.80
2023-03-22T06:59:38.970Z,10.80
2023-03-22T07:02:06.712Z,10.80
2023-03-22T07:04:34.449Z,10.80
2023-03-22T07:07:01.239Z,10.90
2023-03-22T07:09:29.397Z,10.80
2023-03-22T07:11:56.564Z,10.90
2023-03-22T07:14:23.372Z,10.90
2023-03-22T07:16:50.519Z,10.90
2023-03-22T07:19:18.499Z,11.00
2023-03-22T07:21:45.326Z,11.00
2023-03-22T07:24:13.536Z,11.10
2023-03-22T07:26:42.348Z,11.20
2023-03-22T07:29:09.293Z,11.10
2023-03-22T07:31:36.844Z,11.20
2023-03-22T07:34:03.933Z,11.30
2023-03-22T07:36:31.315Z,11.30
2023-03-22T07:38:58.187Z,11.40
2023-03-22T07:41:27.323Z,11.40
2023-03-22T07:44:07.743Z,11.50
2023-03-22T07:46:42.627Z,11.50
2023-03-22T07:49:09.551Z,11.50
2023-03-22T07:51:36.774Z,11.50
2023-03-22T07:54:05.257Z,11.50
2023-03-22T07:56:33.692Z,11.60
2023-03-22T07:59:02.218Z,11.60
2023-03-22T08:01:29.543Z,11.60
2023-03-22T08:03:56.394Z,11.70
2023-03-22T08:06:23.248Z,11.80
2023-03-22T08:08:50.232Z,12.00
2023-03-22T08:11:17.077Z,12.20
2023-03-22T08:13:43.845Z,12.20
2023-03-22T08:16:12.109Z,12.30
2023-03-22T08:18:38.993Z,12.30
2023-03-22T08:21:06.456Z,12.40
2023-03-22T08:23:41.312Z,12.30
2023-03-22T08:26:09.261Z,12.30
2023-03-22T08:28:36.249Z,12.70
2023-03-22T08:31:13.934Z,12.90
2023-03-22T08:33:42.978Z,13.10
2023-03-22T08:36:13.235Z,12.90
2023-03-22T08:38:40.086Z,12.60
2023-03-22T08:41:07.165Z,12.70
2023-03-22T08:43:34.171Z,12.70
2023-03-22T08:46:01.308Z,12.70
2023-03-22T08:48:30.833Z,12.80
2023-03-22T08:50:58.437Z,13.00
2023-03-22T08:53:25.378Z,13.00
2023-03-22T08:55:52.574Z,12.90
2023-03-22T08:58:19.993Z,12.80
2023-03-22T09:00:49.712Z,12.90
2023-03-22T09:03:17.243Z,12.80
2023-03-22T09:05:46.061Z,13.00
2023-03-22T09:08:19.138Z,13.20
2023-03-22T09:10:51.145Z,13.30
2023-03-22T09:13:18.501Z,13.40
2023-03-22T09:15:47.049Z,13.30
2023-03-22T09:18:14.416Z,13.30
2023-03-22T09:20:41.665Z,13.30
2023-03-22T09:23:10.308Z,13.30
2023-03-22T09:25:37.831Z,13.40
2023-03-22T09:28:05.391Z,13.40
2023-03-22T09:30:32.556Z,13.40
2023-03-22T09:32:59.351Z,13.50
2023-03-22T09:35:26.581Z,13.60
2023-03-22T09:37:54.683Z,13.70
2023-03-22T09:40:27.099Z,13.60
2023-03-22T09:42:57.585Z,13.60
2023-03-22T09:45:35.543Z,13.30
2023-03-22T09:48:04.894Z,13.30
2023-03-22T09:50:33.279Z,13.50
2023-03-22T09:53:00.754Z,13.50
2023-03-22T09:55:37.711Z,13.40
2023-03-22T09:58:11.956Z,13.50
2023-03-22T10:00:43.493Z,13.60
2023-03-22T10:03:21.756Z,13.70
2023-03-22T10:05:53.136Z,13.80
2023-03-22T10:08:44.803Z,14.00
2023-03-22T10:11:23.618Z,14.10
2023-03-22T10:14:00.368Z,13.70
2023-03-22T10:16:32.935Z,13.70
2023-03-22T10:19:05.798Z,13.80
2023-03-22T10:21:34.309Z,14.00
2023-03-22T10:24:06.678Z,14.00
2023-03-22T10:26:38.835Z,13.80
2023-03-22T10:29:13.362Z,13.90
2023-03-22T10:31:43.708Z,14.00
2023-03-22T10:34:18.936Z,13.90
2023-03-22T10:36:47.413Z,13.70
2023-03-22T10:39:26.288Z,13.70
2023-03-22T10:41:57.911Z,13.60
2023-03-22T10:44:27.951Z,13.60
2023-03-22T10:46:56.939Z,13.80
2023-03-22T10:49:29.061Z,13.90
2023-03-22T10:52:01.251Z,14.00
2023-03-22T10:54:28.780Z,13.80
2023-03-22T10:56:57.152Z,13.60
2023-03-22T10:59:46.538Z,13.60
2023-03-22T11:02:22.404Z,13.80
2023-03-22T11:04:52.503Z,14.00
2023-03-22T11:07:34.788Z,13.90
2023-03-22T11:10:24.486Z,14.00
2023-03-22T11:12:55.227Z,14.20
2023-03-22T11:15:28.536Z,14.30
2023-03-22T11:18:00.328Z,14.30
2023-03-22T11:20:29.955Z,14.60
2023-03-22T11:23:02.569Z,15.00
2023-03-22T11:25:31.760Z,15.00
2023-03-22T11:28:10.175Z,14.50
2023-03-22T11:30:38.169Z,14.80
2023-03-22T11:33:17.694Z,14.80
2023-03-22T11:35:46.319Z,15.30
2023-03-22T11:38:25.280Z,15.40
2023-03-22T11:40:56.820Z,15.60
2023-03-22T11:43:27.972Z,16.00
2023-03-22T11:45:57.900Z,16.10
2023-03-22T11:48:27.380Z,15.90
2023-03-22T11:50:58.770Z,16.30
2023-03-22T11:53:27.726Z,15.80
2023-03-22T11:55:57.199Z,15.40
2023-03-22T11:58:42.768Z,15.40
2023-03-22T12:01:16.155Z,15.60
2023-03-22T12:03:45.995Z,15.70
2023-03-22T12:06:21.125Z,16.00
2023-03-22T12:08:53.309Z,16.50
2023-03-22T12:11:27.577Z,17.00
2023-03-22T12:14:00.172Z,17.70
2023-03-22T12:16:30.519Z,17.40
2023-03-22T12:19:07.983Z,17.20
2023-03-22T12:21:35.633Z,16.60
2023-03-22T12:24:04.106Z,17.40
2023-03-22T12:26:33.932Z,17.30
2023-03-22T12:29:08.203Z,16.00
2023-03-22T12:31:38.872Z,15.80
2023-03-22T12:34:12.412Z,16.30
2023-03-22T12:36:43.143Z,15.70
2023-03-22T12:39:19.372Z,15.80
2023-03-22T12:41:49.905Z,15.80
2023-03-22T12:44:24.582Z,16.80
2023-03-22T12:46:56.219Z,17.30
2023-03-22T12:49:28.151Z,17.00
2023-03-22T12:52:02.705Z,16.90
2023-03-22T12:54:30.073Z,18.00
2023-03-22T12:56:57.553Z,18.00
2023-03-22T12:59:30.377Z,17.30
2023-03-22T13:02:01.514Z,17.20
2023-03-22T13:04:32.642Z,17.60
2023-03-22T13:07:11.162Z,17.40
2023-03-22T13:09:40.991Z,17.20
2023-03-22T13:12:30.801Z,17.20
2023-03-22T13:15:02.063Z,16.80
2023-03-22T13:17:42.904Z,16.90
2023-03-22T13:20:28.710Z,16.60
2023-03-22T13:23:01.734Z,16.30
2023-03-22T13:25:31.117Z,16.00
2023-03-22T13:27:59.792Z,15.50
2023-03-22T13:30:33.224Z,15.40
2023-03-22T13:33:08.515Z,15.40
2023-03-22T13:35:43.268Z,15.40
2023-03-22T13:38:19.225Z,15.20
2023-03-22T13:40:52.781Z,15.10
2023-03-22T13:43:27.880Z,15.00
2023-03-22T13:46:28.393Z,14.90
2023-03-22T13:49:14.433Z,14.80
2023-03-22T13:51:42.830Z,14.70
2023-03-22T13:54:18.555Z,14.80
2023-03-22T13:56:54.126Z,14.80
2023-03-22T13:59:25.524Z,14.80
2023-03-22T14:01:58.439Z,14.80
2023-03-22T14:04:34.820Z,14.90
2023-03-22T14:07:10.994Z,15.00
2023-03-22T14:09:44.345Z,14.90
2023-03-22T14:12:19.372Z,14.90
2023-03-22T14:14:50.482Z,15.00
2023-03-22T14:17:31.994Z,15.00
2023-03-22T14:20:00.274Z,15.00
